createdAt,value
2022-10-25T00:02:09.238Z,25.7
2022-10-25T00:07:11.677Z,27
2022-10-25T00:12:13.612Z,26.7
2022-10-25T00:17:15.450Z,25.9
2022-10-25T00:22:17.594Z,27.1
2022-10-25T00:27:19.801Z,26.3
2022-10-25T00:32:21.678Z,26.6
2022-10-25T00:37:23.892Z,26.4
2022-10-25T00:42:26.019Z,27.1
2022-10-25T00:47:28.013Z,27.6
2022-10-25T00:52:30.230Z,26.3
2022-10-25T00:57:32.407Z,26.5
2022-10-25T01:02:34.552Z,25.9
2022-10-25T01:07:37.259Z,26.4
2022-10-25T01:12:39.410Z,26.5
2022-10-25T01:17:41.561Z,26.7
2022-10-25T01:22:43.955Z,26.7
2022-10-25T01:27:47.388Z,26.8
2022-10-25T01:32:49.893Z,25.6
2022-10-25T01:37:52.355Z,25.6
2022-10-25T01:42:57.389Z,24.8
2022-10-25T01:47:59.343Z,25
2022-10-25T01:53:01.574Z,25.7
2022-10-25T01:58:02.542Z,26.9
2022-10-25T02:03:04.563Z,27.5
2022-10-25T02:08:06.724Z,29
2022-10-25T02:13:08.712Z,30
2022-10-25T02:18:10.593Z,28.9
2022-10-25T02:23:12.846Z,29.2
2022-10-25T02:28:15.333Z,28.2
2022-10-25T02:33:17.433Z,27.5
2022-10-25T02:38:19.360Z,25.9
2022-10-25T02:43:21.360Z,25.8
2022-10-25T02:48:23.391Z,25.9
2022-10-25T02:53:25.315Z,26
2022-10-25T02:58:27.306Z,25.9
2022-10-25T03:03:29.277Z,39.3
2022-10-25T03:08:29.627Z,26.7
2022-10-25T03:13:31.628Z,27.1
2022-10-25T03:18:33.480Z,27.7
2022-10-25T03:23:35.445Z,27.8
2022-10-25T03:28:37.464Z,28.4
2022-10-25T03:33:39.413Z,28.5
2022-10-25T03:38:41.327Z,28.2
2022-10-25T03:43:43.343Z,27.7
2022-10-25T03:48:47.349Z,26.6
2022-10-25T03:53:49.585Z,27.2
2022-10-25T03:58:52.041Z,27.5
2022-10-25T04:03:54.293Z,27.9
2022-10-25T04:08:56.222Z,27.4
2022-10-25T04:13:58.156Z,27.5
2022-10-25T04:19:00.051Z,27.7
2022-10-25T04:24:05.358Z,28.1
2022-10-25T04:29:07.506Z,29.6
2022-10-25T04:34:09.431Z,29.7
2022-10-25T04:39:12.144Z,29.8
2022-10-25T04:44:14.270Z,29.4
2022-10-25T04:49:16.321Z,30.3
2022-10-25T04:54:18.338Z,29.8
2022-10-25T04:59:20.584Z,27.9
2022-10-25T05:04:22.547Z,28
2022-10-25T05:09:24.624Z,26.8
2022-10-25T05:14:26.552Z,25.4
2022-10-25T05:19:28.714Z,24
2022-10-25T05:24:31.392Z,24
2022-10-25T05:29:33.698Z,23.5
2022-10-25T05:34:35.623Z,24.2
2022-10-25T05:39:37.632Z,25.4
2022-10-25T05:44:39.966Z,25.9
2022-10-25T05:49:42.010Z,25.7
2022-10-25T05:54:46.190Z,24.1
2022-10-25T05:59:48.169Z,23.9
2022-10-25T06:04:53.352Z,21.9
2022-10-25T06:09:55.476Z,20.9
2022-10-25T06:14:57.426Z,19.1
2022-10-25T06:19:59.295Z,18.1
2022-10-25T06:25:01.489Z,16.8
2022-10-25T06:30:03.739Z,15.9
2022-10-25T06:35:05.950Z,13.6
2022-10-25T06:40:07.931Z,11.2
2022-10-25T06:45:10.075Z,10.3
2022-10-25T06:50:12.039Z,9.9
2022-10-25T06:55:14.035Z,11.5
2022-10-25T07:00:16.645Z,10.5
2022-10-25T07:05:18.812Z,10.3
2022-10-25T07:10:20.720Z,11.6
2022-10-25T07:15:22.794Z,11.4
2022-10-25T07:20:25.463Z,12.3
2022-10-25T07:25:27.660Z,12.6
2022-10-25T07:30:30.034Z,12.4
2022-10-25T07:35:46.622Z,11.6
2022-10-25T07:40:32.533Z,10.3
2022-10-25T07:45:34.419Z,9.9
2022-10-25T07:50:36.343Z,9
2022-10-25T07:55:38.477Z,9.5
2022-10-25T08:00:40.517Z,10.1
2022-10-25T08:05:42.744Z,10.4
2022-10-25T08:10:45.041Z,10.1
2022-10-25T08:15:47.293Z,9
2022-10-25T08:21:05.392Z,8.4
2022-10-25T08:25:57.455Z,8
2022-10-25T08:30:59.533Z,7.7
2022-10-25T08:36:02.324Z,6.8
2022-10-25T08:41:05.313Z,7.2
2022-10-25T08:46:07.463Z,7
2022-10-25T08:51:09.399Z,7
2022-10-25T08:56:17.932Z,7.2
2022-10-25T09:01:20.957Z,6.7
2022-10-25T09:06:23.915Z,6.3
2022-10-25T09:11:25.768Z,6.1
2022-10-25T09:16:27.918Z,5.8
2022-10-25T09:21:29.824Z,6
2022-10-25T09:26:31.982Z,5.8
2022-10-25T09:31:34.095Z,6.1
2022-10-25T09:36:36.014Z,6.1
2022-10-25T09:41:38.032Z,6
2022-10-25T09:46:39.933Z,6.3
2022-10-25T09:51:41.894Z,6
2022-10-25T09:56:43.756Z,6.2
2022-10-25T10:01:49.910Z,6.2
2022-10-25T10:06:52.730Z,6
2022-10-25T10:11:54.663Z,5.5
2022-10-25T10:16:56.630Z,5.7
2022-10-25T10:21:58.589Z,5.5
2022-10-25T10:27:00.497Z,5.2
2022-10-25T10:32:02.408Z,5.4
2022-10-25T10:37:04.423Z,5.4
2022-10-25T10:42:06.353Z,5.4
2022-10-25T10:47:15.393Z,4.9
2022-10-25T10:52:17.739Z,4.8
2022-10-25T10:57:20.071Z,4.4
2022-10-25T11:02:23.091Z,4.3
2022-10-25T11:07:26.631Z,4
2022-10-25T11:12:28.766Z,3.3
2022-10-25T11:17:30.932Z,3.7
2022-10-25T11:22:34.197Z,3.4
2022-10-25T11:27:36.417Z,3.5
2022-10-25T11:32:38.743Z,3.6
2022-10-25T11:37:39.488Z,3.5
2022-10-25T11:42:41.789Z,3.8
2022-10-25T11:47:44.322Z,3.5
2022-10-25T11:52:47.117Z,3.4
2022-10-25T11:57:56.533Z,3.4
2022-10-25T12:02:58.641Z,3.3
2022-10-25T12:08:00.847Z,6.9
2022-10-25T12:13:02.936Z,3.4
2022-10-25T12:18:05.070Z,3.4
2022-10-25T12:23:07.099Z,2.9
2022-10-25T12:28:10.062Z,7.4
2022-10-25T12:33:11.998Z,2.6
2022-10-25T12:38:13.900Z,2.6
2022-10-25T12:43:15.760Z,3
2022-10-25T12:48:17.663Z,2.9
2022-10-25T12:53:19.520Z,2.9
2022-10-25T12:58:21.474Z,3
2022-10-25T13:03:23.638Z,2.8
2022-10-25T13:08:25.599Z,3.7
2022-10-25T13:13:27.511Z,2.9
2022-10-25T13:18:29.415Z,2.7
2022-10-25T13:23:31.377Z,2.3
2022-10-25T13:28:37.273Z,2.2
2022-10-25T13:33:39.397Z,2
2022-10-25T13:38:41.265Z,2.1
2022-10-25T13:43:43.299Z,2.1
2022-10-25T13:48:45.284Z,1.8
2022-10-25T13:53:47.464Z,3.9
2022-10-25T13:58:49.360Z,1.8
2022-10-25T14:03:51.474Z,1.6
2022-10-25T14:08:53.391Z,1.5
2022-10-25T14:13:55.415Z,1.6
2022-10-25T14:18:57.515Z,1.7
2022-10-25T14:23:59.428Z,1.5
2022-10-25T14:29:01.450Z,1.6
2022-10-25T14:34:03.437Z,1.7
2022-10-25T14:39:05.432Z,1.6
2022-10-25T14:44:08.148Z,1.9
2022-10-25T14:49:15.606Z,2.5
2022-10-25T14:54:17.504Z,3
2022-10-25T14:59:19.419Z,3.1
2022-10-25T15:04:21.374Z,13.3
2022-10-25T15:09:43.649Z,3.4
2022-10-25T15:14:25.801Z,2
2022-10-25T15:19:27.763Z,1.9
2022-10-25T15:24:29.672Z,1.8
2022-10-25T15:29:31.854Z,1.7
2022-10-25T15:34:33.898Z,1.6
2022-10-25T15:39:36.229Z,2.6
2022-10-25T15:44:38.761Z,3.8
2022-10-25T15:49:40.768Z,3.4
2022-10-25T15:54:42.642Z,2.8
2022-10-25T15:59:44.592Z,2.5
2022-10-25T16:04:46.551Z,5.2
2022-10-25T16:09:48.424Z,3.7
2022-10-25T16:14:50.334Z,3.2
2022-10-25T16:19:53.540Z,3.4
2022-10-25T16:24:55.645Z,3.8
2022-10-25T16:29:57.865Z,4.8
2022-10-25T16:34:59.903Z,6
2022-10-25T16:40:02.151Z,8.6
2022-10-25T16:45:04.197Z,10.2
2022-10-25T16:50:06.118Z,9.6
2022-10-25T16:55:08.032Z,7.6
2022-10-25T17:00:10.139Z,9.7
2022-10-25T17:05:12.122Z,8.2
2022-10-25T17:10:14.097Z,8.3
2022-10-25T17:15:16.127Z,8.7
2022-10-25T17:20:17.982Z,9.1
2022-10-25T17:25:19.861Z,10
2022-10-25T17:30:21.816Z,26.7
2022-10-25T17:35:29.897Z,11.4
2022-10-25T17:40:32.224Z,10.1
2022-10-25T17:45:34.565Z,10
2022-10-25T17:50:37.254Z,10.3
2022-10-25T17:55:41.922Z,9.3
2022-10-25T18:00:44.164Z,8.7
2022-10-25T18:05:46.250Z,8.1
2022-10-25T18:10:48.166Z,14.2
2022-10-25T18:15:50.132Z,9.9
2022-10-25T18:20:52.529Z,10.4
2022-10-25T18:25:53.302Z,11
2022-10-25T18:30:56.610Z,10.8
2022-10-25T18:35:58.525Z,10.4
2022-10-25T18:41:00.559Z,10.3
2022-10-25T18:46:02.623Z,10.3
2022-10-25T18:51:04.648Z,9.1
2022-10-25T18:56:06.619Z,8.7
2022-10-25T19:01:13.387Z,8.4
2022-10-25T19:06:16.772Z,8.7
2022-10-25T19:11:18.720Z,9.1
2022-10-25T19:16:20.620Z,8.8
2022-10-25T19:21:22.623Z,9.2
2022-10-25T19:26:25.188Z,15.5
2022-10-25T19:31:29.044Z,8.8
2022-10-25T19:36:31.456Z,8.4
2022-10-25T19:41:33.829Z,8.5
2022-10-25T19:46:35.885Z,9.1
2022-10-25T19:51:37.757Z,7.9
2022-10-25T19:56:39.637Z,7
2022-10-25T20:01:41.889Z,6.6
2022-10-25T20:06:44.617Z,6.4
2022-10-25T20:11:45.276Z,6.1
2022-10-25T20:16:47.240Z,5.5
2022-10-25T20:21:49.162Z,5.7
2022-10-25T20:26:51.071Z,5.6
2022-10-25T20:31:52.970Z,5.8
2022-10-25T20:36:55.437Z,5.5
2022-10-25T20:41:57.805Z,5.3
2022-10-25T20:46:59.866Z,5.6
2022-10-25T20:52:01.711Z,10
2022-10-25T20:57:03.757Z,5.5
2022-10-25T21:02:06.079Z,5.4
2022-10-25T21:07:06.822Z,5.3
2022-10-25T21:12:09.090Z,5.6
2022-10-25T21:17:11.309Z,5.7
2022-10-25T21:22:13.202Z,5.9
2022-10-25T21:27:15.066Z,5.9
2022-10-25T21:32:17.322Z,5.8
2022-10-25T21:37:19.443Z,5.6
2022-10-25T21:42:21.471Z,5.9
2022-10-25T21:47:23.620Z,5.9
2022-10-25T21:52:25.652Z,6
2022-10-25T21:57:27.514Z,6.1
2022-10-25T22:02:30.087Z,5.8
2022-10-25T22:07:33.388Z,6.7
2022-10-25T22:12:35.571Z,6
2022-10-25T22:17:37.606Z,6.2
2022-10-25T22:22:39.698Z,6.5
2022-10-25T22:27:41.877Z,6.5
2022-10-25T22:32:44.182Z,6.6
2022-10-25T22:37:47.053Z,6.8
2022-10-25T22:42:50.183Z,6.5
2022-10-25T22:47:52.355Z,6.7
2022-10-25T22:52:54.499Z,7.1
2022-10-25T22:57:56.457Z,7.2
2022-10-25T23:02:58.597Z,7.5
2022-10-25T23:08:01.055Z,7.5
2022-10-25T23:13:03.437Z,7.6
2022-10-25T23:18:05.607Z,8.3
2022-10-25T23:23:07.537Z,7.8
2022-10-25T23:28:09.791Z,7.9
2022-10-25T23:33:11.855Z,8.4
2022-10-25T23:38:13.736Z,8.4
2022-10-25T23:43:15.723Z,8.3
2022-10-25T23:48:17.746Z,8.5
2022-10-25T23:53:19.636Z,8.9
2022-10-25T23:58:21.547Z,8.7
